Time;durP1;ratioP1;P1;durP2;ratioP2;P2;SDS_P1;SDS_P2;PMS_P1;PMS_P2;Temp;Humidity;BMP_temperature;BMP_pressure;BME280_temperature;BME280_humidity;BME280_pressure;Samples;Min_cycle;Max_cycle;Signal;HPM_P1;HPM_P2
2023/06/16 00:00:59;;;;;;;;;20.40;18.20;;;;;18.72;79.52;98651.13;6245926;28;96315;-68
2023/06/16 00:04:05;;;;;;;;;19.80;18.20;;;;;18.73;79.96;98647.31;6245317;28;98955;-69
2023/06/16 00:07:09;;;;;;;;;18.00;17.40;;;;;18.80;79.31;98645.09;6247781;27;96276;-69
2023/06/16 00:10:12;;;;;;;;;21.60;19.60;;;;;18.81;79.37;98644.00;6246459;28;96357;-69
2023/06/16 00:13:16;;;;;;;;;22.40;22.00;;;;;18.77;78.94;98636.63;6247997;27;96340;-69
2023/06/16 00:16:20;;;;;;;;;19.80;19.00;;;;;18.77;79.25;98634.72;6246647;28;97110;-69
2023/06/16 00:19:27;;;;;;;;;22.40;20.60;;;;;18.82;79.02;98642.06;6245407;28;97329;-69
2023/06/16 00:22:34;;;;;;;;;21.20;19.20;;;;;18.83;78.59;98636.31;6246352;28;96889;-69
2023/06/16 00:25:38;;;;;;;;;21.00;20.00;;;;;18.83;78.58;98633.59;6245006;27;97040;-69
2023/06/16 00:28:41;;;;;;;;;21.00;19.60;;;;;18.83;79.15;98633.59;6246268;28;96251;-70
2023/06/16 00:31:45;;;;;;;;;20.20;19.00;;;;;18.87;79.02;98639.31;6246066;27;96274;-71
2023/06/16 00:34:50;;;;;;;;;23.00;22.00;;;;;18.90;79.10;98628.66;6245730;27;99096;-70
2023/06/16 00:37:53;;;;;;;;;23.20;21.40;;;;;18.92;78.81;98634.63;6247194;27;96713;-71
2023/06/16 00:40:57;;;;;;;;;21.00;20.75;;;;;18.93;77.94;98633.53;6226144;28;96667;-71
2023/06/16 00:44:02;;;;;;;;;22.25;20.25;;;;;18.89;77.92;98628.94;6243262;28;97682;-71
2023/06/16 00:47:06;;;;;;;;;20.00;18.00;;;;;18.67;77.49;98623.06;6244363;28;96883;-70
2023/06/16 00:50:11;;;;;;;;;21.00;19.00;;;;;18.51;77.59;98635.91;6243585;27;98991;-69
2023/06/16 00:53:16;;;;;;;;;18.25;18.00;;;;;18.31;78.78;98630.53;6225760;28;98775;-71
2023/06/16 00:56:21;;;;;;;;;21.40;21.00;;;;;18.17;78.89;98635.75;6242987;28;96289;-70
2023/06/16 00:59:28;;;;;;;;;24.00;22.00;;;;;18.08;79.39;98621.84;6245222;28;98007;-71
2023/06/16 01:02:31;;;;;;;;;21.00;20.00;;;;;18.11;79.33;98625.94;6241827;28;96369;-70
2023/06/16 01:05:37;;;;;;;;;23.40;22.60;;;;;18.10;79.50;98622.38;6243503;28;96321;-70
2023/06/16 01:08:52;;;;;;;;;20.00;17.60;;;;;18.09;79.46;98622.66;6242563;27;96595;-71
2023/06/16 01:12:05;;;;;;;;;19.00;18.00;;;;;18.10;79.27;98614.22;6243092;27;96365;-70
2023/06/16 01:15:12;;;;;;;;;20.00;19.00;;;;;18.06;78.99;98615.03;6242669;28;96500;-70
2023/06/16 01:18:22;;;;;;;;;20.50;19.00;;;;;18.02;78.85;98611.22;6234988;28;96447;-70
2023/06/16 01:21:37;;;;;;;;;19.00;19.00;;;;;17.98;78.88;98612.88;6250595;27;96355;-70
2023/06/16 01:24:45;;;;;;;;;20.00;18.00;;;;;18.03;79.06;98618.34;6262607;27;96321;-70
2023/06/16 01:27:51;;;;;;;;;19.80;18.80;;;;;18.04;78.61;98617.22;6251739;27;96441;-70
2023/06/16 01:30:55;;;;;;;;;25.25;25.00;;;;;18.03;78.88;98612.88;6241302;27;96241;-71
2023/06/16 01:34:02;;;;;;;;;40.33;33.67;;;;;18.04;79.04;98603.56;6241992;28;96259;-70
2023/06/16 01:37:06;;;;;;;;;46.00;38.50;;;;;18.06;79.94;98612.31;6241177;28;96712;-70
2023/06/16 01:40:13;;;;;;;;;46.00;37.40;;;;;18.03;80.36;98610.16;6225212;28;97035;-70
2023/06/16 01:43:17;;;;;;;;;42.50;35.50;;;;;18.01;80.95;98606.88;6243134;28;96348;-70
2023/06/16 01:46:22;;;;;;;;;32.20;29.40;;;;;18.02;81.64;98612.06;6243278;27;96244;-70
2023/06/16 01:49:26;;;;;;;;;26.00;25.00;;;;;18.11;81.82;98615.84;6245350;28;96324;-70
2023/06/16 01:52:32;;;;;;;;;24.80;22.00;;;;;18.12;82.15;98616.66;6244247;28;97245;-70
2023/06/16 01:55:36;;;;;;;;;24.50;23.00;;;;;18.09;81.53;98614.47;6243912;27;97071;-70
2023/06/16 01:58:41;;;;;;;;;24.60;23.00;;;;;18.07;81.83;98620.22;6242924;28;96278;-72
2023/06/16 02:01:52;;;;;;;;;29.40;25.60;;;;;17.98;81.32;98612.88;6218217;28;97293;-71
2023/06/16 02:04:57;;;;;;;;;38.60;33.00;;;;;17.99;80.65;98614.50;6221323;28;96252;-71
2023/06/16 02:08:02;;;;;;;;;38.67;32.00;;;;;17.93;80.50;98607.44;6222628;28;96295;-70
2023/06/16 02:11:09;;;;;;;;;39.75;32.00;;;;;17.91;80.15;98601.44;6222279;28;96677;-70
2023/06/16 02:14:13;;;;;;;;;38.00;33.00;;;;;17.88;79.65;98611.00;6239474;28;98444;-70
2023/06/16 02:17:16;;;;;;;;;32.40;30.00;;;;;17.79;79.31;98615.34;6248114;27;96248;-71
2023/06/16 02:20:20;;;;;;;;;31.00;27.00;;;;;17.71;79.66;98610.47;6229301;28;96947;-71
2023/06/16 02:23:25;;;;;;;;;28.00;26.00;;;;;17.68;79.61;98597.38;6244570;28;97281;-70
2023/06/16 02:26:29;;;;;;;;;25.50;24.25;;;;;17.68;80.46;98602.84;6229081;28;96491;-71
2023/06/16 02:29:32;;;;;;;;;26.50;24.50;;;;;17.66;80.63;98597.66;6245639;28;96321;-70
2023/06/16 02:32:37;;;;;;;;;25.75;24.25;;;;;17.66;81.06;98596.84;6245865;28;97024;-70
2023/06/16 02:35:55;;;;;;;;;28.00;26.00;;;;;17.63;81.65;98592.75;6246336;28;96963;-70
2023/06/16 02:38:58;;;;;;;;;24.40;22.40;;;;;17.68;81.89;98595.50;6246036;28;96292;-71
2023/06/16 02:42:04;;;;;;;;;23.00;22.33;;;;;17.70;81.52;98593.28;6229023;28;96495;-70
2023/06/16 02:45:09;;;;;;;;;25.60;23.00;;;;;17.70;81.54;98597.91;6245839;28;96251;-70
2023/06/16 02:48:13;;;;;;;;;26.20;23.00;;;;;17.63;83.11;98597.41;6224548;28;96268;-71
2023/06/16 02:51:16;;;;;;;;;26.60;23.20;;;;;17.69;83.49;98599.81;6226265;28;96712;-70
2023/06/16 02:54:20;;;;;;;;;23.60;22.00;;;;;17.53;82.81;98578.28;6226140;28;96982;-70
2023/06/16 02:57:25;;;;;;;;;24.00;23.00;;;;;17.72;82.82;98606.66;6242935;28;96512;-70
2023/06/16 03:00:28;;;;;;;;;25.00;22.00;;;;;17.75;82.95;98606.91;6221702;28;96769;-70
2023/06/16 03:03:48;;;;;;;;;26.40;24.40;;;;;17.77;82.07;98609.38;6245652;27;96631;-70
2023/06/16 03:07:02;;;;;;;;;21.60;20.60;;;;;17.74;82.33;98610.72;6249774;27;96266;-70
2023/06/16 03:10:11;;;;;;;;;23.75;22.50;;;;;17.68;82.76;98600.94;6245668;28;96275;-70
2023/06/16 03:13:33;;;;;;;;;22.00;20.00;;;;;17.65;82.09;98593.28;6243979;28;96340;-70
2023/06/16 03:16:36;;;;;;;;;24.40;22.40;;;;;17.73;81.53;98608.28;6244773;27;96285;-70
2023/06/16 03:19:40;;;;;;;;;24.25;22.25;;;;;17.73;81.66;98608.28;6244167;27;96474;-71
2023/06/16 03:22:45;;;;;;;;;24.60;24.00;;;;;17.65;82.31;98593.28;6228893;28;98266;-70
2023/06/16 03:25:48;;;;;;;;;22.60;20.20;;;;;17.72;82.51;98610.19;6258039;27;96239;-70
2023/06/16 03:28:58;;;;;;;;;25.00;22.50;;;;;17.77;82.41;98612.09;6253403;27;96602;-71
2023/06/16 03:32:02;;;;;;;;;22.60;21.00;;;;;17.82;81.96;98608.53;6246868;27;96448;-70
2023/06/16 03:35:07;;;;;;;;;25.00;22.50;;;;;17.93;82.07;98612.91;6243909;28;96286;-70
2023/06/16 03:38:10;;;;;;;;;27.20;24.00;;;;;17.96;82.11;98602.25;6261872;27;96236;-70
2023/06/16 03:41:17;;;;;;;;;25.00;25.00;;;;;18.12;82.11;98606.56;6253470;27;96788;-71
2023/06/16 03:44:23;;;;;;;;;24.50;22.25;;;;;18.29;82.66;98613.59;6245800;27;96221;-70
2023/06/16 03:47:26;;;;;;;;;25.20;23.60;;;;;18.44;82.18;98608.91;6229702;28;96356;-71
2023/06/16 03:50:30;;;;;;;;;27.00;23.00;;;;;18.38;82.63;98592.81;6245901;28;96178;-71
2023/06/16 03:53:34;;;;;;;;;26.00;25.60;;;;;18.53;82.25;98607.25;6244797;27;96376;-71
2023/06/16 03:56:38;;;;;;;;;27.40;25.00;;;;;18.63;82.15;98611.84;6260142;27;96384;-71
2023/06/16 03:59:43;;;;;;;;;26.00;24.00;;;;;18.74;81.55;98610.72;6245910;27;96357;-70
2023/06/16 04:02:46;;;;;;;;;27.60;24.60;;;;;18.81;81.21;98615.88;6249027;27;96335;-70
2023/06/16 04:05:58;;;;;;;;;26.60;25.00;;;;;18.87;80.55;98622.91;6247008;28;96550;-70
2023/06/16 04:09:03;;;;;;;;;24.60;22.40;;;;;18.95;80.12;98616.88;6244431;28;96344;-70
2023/06/16 04:12:09;;;;;;;;;27.00;26.00;;;;;18.95;80.28;98619.63;6225091;28;96643;-71
2023/06/16 04:15:14;;;;;;;;;26.20;24.00;;;;;18.92;79.87;98611.97;6266211;27;96446;-69
2023/06/16 04:18:18;;;;;;;;;28.80;24.80;;;;;18.98;79.25;98619.84;6258512;27;96493;-71
2023/06/16 04:21:22;;;;;;;;;27.60;24.60;;;;;19.03;79.05;98617.09;6232021;27;97191;-71
2023/06/16 04:24:25;;;;;;;;;28.00;26.00;;;;;19.09;78.75;98611.59;6241530;27;96315;-71
2023/06/16 04:27:32;;;;;;;;;31.40;26.80;;;;;19.14;78.28;98620.56;6251604;27;98435;-71
2023/06/16 04:30:39;;;;;;;;;28.00;23.40;;;;;19.13;77.75;98618.94;6227679;28;96614;-71
2023/06/16 04:33:43;;;;;;;;;26.60;23.20;;;;;19.22;77.35;98616.41;6244293;28;96752;-71
2023/06/16 04:36:49;;;;;;;;;26.00;23.80;;;;;19.24;76.05;98609.56;6245906;27;96442;-71
2023/06/16 04:40:05;;;;;;;;;28.80;26.80;;;;;19.26;75.94;98593.69;6250424;27;96657;-71
2023/06/16 04:43:10;;;;;;;;;27.00;25.00;;;;;19.30;75.74;98610.38;6230022;28;99418;-71
2023/06/16 04:46:16;;;;;;;;;25.00;23.00;;;;;19.51;75.41;98617.31;6241185;27;98832;-72
2023/06/16 04:49:19;;;;;;;;;26.50;25.25;;;;;19.68;74.74;98617.72;6246393;28;96679;-72
2023/06/16 04:52:24;;;;;;;;;27.75;24.75;;;;;19.80;74.21;98614.59;6270746;27;96933;-71
2023/06/16 04:55:29;;;;;;;;;28.00;25.00;;;;;19.93;74.08;98624.88;6236767;28;96671;-71
2023/06/16 04:58:33;;;;;;;;;27.60;25.60;;;;;20.09;73.33;98620.03;6255399;28;96646;-70
2023/06/16 05:01:39;;;;;;;;;29.80;25.80;;;;;20.23;73.22;98619.06;6255230;28;96270;-71
2023/06/16 05:04:43;;;;;;;;;30.00;27.00;;;;;20.33;71.82;98624.44;6237288;27;98473;-72
2023/06/16 05:07:49;;;;;;;;;30.00;27.75;;;;;20.46;70.79;98625.69;6263090;27;96259;-71
2023/06/16 05:10:53;;;;;;;;;30.20;25.80;;;;;20.61;70.18;98630.16;6239748;27;97030;-72
2023/06/16 05:13:57;;;;;;;;;27.20;25.40;;;;;20.71;69.33;98619.06;6251266;28;96551;-72
2023/06/16 05:17:02;;;;;;;;;31.00;27.60;;;;;20.86;68.74;98629.84;6247190;28;96493;-71
2023/06/16 05:20:06;;;;;;;;;25.60;24.00;;;;;20.92;69.09;98619.59;6226394;28;98056;-71
2023/06/16 05:23:13;;;;;;;;;26.40;23.00;;;;;21.12;67.30;98636.56;6250921;28;96358;-71
2023/06/16 05:26:17;;;;;;;;;24.40;23.00;;;;;21.23;66.66;98630.97;6248698;28;96461;-70
2023/06/16 05:29:22;;;;;;;;;27.00;23.40;;;;;21.30;66.28;98631.44;6262124;27;96146;-72
2023/06/16 05:32:26;;;;;;;;;27.60;24.40;;;;;21.11;66.02;98598.53;6244039;28;96553;-70
2023/06/16 05:35:30;;;;;;;;;25.60;24.00;;;;;21.37;66.35;98637.34;6257944;28;96353;-70
2023/06/16 05:38:34;;;;;;;;;26.80;24.00;;;;;21.43;65.86;98639.72;6252880;27;96740;-70
2023/06/16 05:41:37;;;;;;;;;25.40;24.00;;;;;21.49;65.51;98644.00;6275748;27;96817;-70
2023/06/16 05:44:45;;;;;;;;;26.40;24.00;;;;;21.45;65.11;98636.69;6272643;27;96331;-72
2023/06/16 05:47:52;;;;;;;;;29.00;27.00;;;;;21.50;65.25;98631.91;6281449;27;96173;-71
2023/06/16 05:50:56;;;;;;;;;28.00;26.00;;;;;21.61;64.57;98616.09;6264990;27;99584;-71
2023/06/16 05:53:59;;;;;;;;;24.40;23.00;;;;;21.61;64.04;98594.97;6266796;27;96997;-70
2023/06/16 05:57:03;;;;;;;;;25.60;23.00;;;;;22.04;63.71;98628.53;6259171;27;96542;-71
2023/06/16 06:00:09;;;;;;;;;27.40;24.40;;;;;22.00;62.50;98612.97;6241155;28;96668;-71
2023/06/16 06:03:17;;;;;;;;;25.40;22.40;;;;;22.30;61.92;98625.31;6258499;27;96518;-71
2023/06/16 06:06:21;;;;;;;;;28.40;26.40;;;;;22.43;61.36;98638.25;6241274;28;96859;-70
2023/06/16 06:09:26;;;;;;;;;26.00;23.75;;;;;22.56;60.70;98629.19;6257732;28;96272;-71
2023/06/16 06:12:29;;;;;;;;;25.50;25.00;;;;;22.88;61.00;98633.75;6255754;28;96281;-70
2023/06/16 06:15:33;;;;;;;;;26.00;22.60;;;;;23.08;58.97;98614.06;6239253;28;97629;-71
2023/06/16 06:18:43;;;;;;;;;26.40;23.80;;;;;23.34;58.09;98628.03;6239160;28;99038;-70
2023/06/16 06:21:47;;;;;;;;;26.00;23.00;;;;;23.32;56.30;98622.84;6239981;28;96652;-70
2023/06/16 06:24:51;;;;;;;;;27.00;24.00;;;;;23.52;57.07;98640.81;6253623;28;98659;-72
2023/06/16 06:27:55;;;;;;;;;29.00;24.80;;;;;23.59;56.63;98632.16;6255350;28;96295;-70
2023/06/16 06:30:59;;;;;;;;;25.00;24.00;;;;;23.61;56.15;98619.69;6253839;27;96278;-69
2023/06/16 06:34:04;;;;;;;;;25.00;21.75;;;;;23.87;56.05;98632.81;6255711;28;96308;-70
2023/06/16 06:37:08;;;;;;;;;28.50;24.00;;;;;24.05;55.63;98637.28;6254910;28;96773;-70
2023/06/16 06:40:11;;;;;;;;;26.67;22.33;;;;;23.91;54.65;98585.06;6238670;28;96689;-69
2023/06/16 06:43:16;;;;;;;;;27.00;26.00;;;;;24.23;53.81;98628.03;6272270;27;96209;-70
2023/06/16 06:46:29;;;;;;;;;24.50;24.00;;;;;24.19;53.62;98629.78;6244044;27;96346;-70
2023/06/16 06:49:34;;;;;;;;;29.60;26.00;;;;;24.16;53.42;98622.13;6274562;27;96646;-69
2023/06/16 06:52:38;;;;;;;;;21.00;18.40;;;;;24.31;53.80;98630.00;6258264;27;96433;-71
2023/06/16 06:55:41;;;;;;;;;24.00;22.75;;;;;24.60;53.93;98640.47;6254098;28;96290;-70
2023/06/16 06:58:44;;;;;;;;;28.00;26.00;;;;;24.55;52.10;98607.56;6255364;28;96491;-70
2023/06/16 07:01:48;;;;;;;;;26.60;25.00;;;;;24.78;51.83;98633.06;6258293;27;96251;-69
2023/06/16 07:04:53;;;;;;;;;26.50;24.00;;;;;24.77;51.73;98617.69;6258271;27;96960;-70
2023/06/16 07:07:56;;;;;;;;;23.00;20.00;;;;;24.89;51.18;98656.50;6259222;27;96340;-70
2023/06/16 07:10:59;;;;;;;;;24.00;20.40;;;;;25.09;51.34;98644.03;6240402;28;98369;-70
2023/06/16 07:14:04;;;;;;;;;24.00;22.40;;;;;25.35;51.80;98642.13;6237460;28;97506;-70
2023/06/16 07:17:08;;;;;;;;;19.50;17.00;;;;;25.68;49.65;98629.47;6257130;28;96271;-70
2023/06/16 07:20:13;;;;;;;;;19.00;18.00;;;;;26.11;47.32;98640.41;6256669;27;96848;-70
2023/06/16 07:23:17;;;;;;;;;18.20;16.40;;;;;26.47;46.47;98640.00;6257456;27;96326;-70
2023/06/16 07:26:20;;;;;;;;;20.80;19.60;;;;;26.81;47.38;98639.00;6258021;27;96751;-71
2023/06/16 07:29:23;;;;;;;;;22.00;20.00;;;;;27.16;45.37;98636.88;6255433;28;98437;-70
2023/06/16 07:32:27;;;;;;;;;22.60;19.60;;;;;27.38;44.23;98639.28;6255171;28;98568;-70
2023/06/16 07:35:31;;;;;;;;;21.00;20.00;;;;;27.59;43.68;98636.56;6255533;28;98514;-70
2023/06/16 07:38:35;;;;;;;;;22.40;22.00;;;;;27.64;42.41;98638.28;6256961;27;96999;-71
2023/06/16 07:41:38;;;;;;;;;18.00;17.00;;;;;27.74;42.00;98633.16;6255091;28;96285;-70
2023/06/16 07:44:42;;;;;;;;;19.75;18.75;;;;;27.95;42.24;98633.13;6255264;28;98377;-71
2023/06/16 07:47:46;;;;;;;;;17.75;17.00;;;;;28.13;40.81;98630.97;6257607;27;96476;-69
2023/06/16 07:50:53;;;;;;;;;19.67;17.33;;;;;28.29;41.70;98627.22;6255766;28;96329;-69
2023/06/16 07:53:57;;;;;;;;;19.00;19.00;;;;;28.53;41.10;98623.66;6257926;28;96894;-71
2023/06/16 07:57:00;;;;;;;;;22.50;18.50;;;;;28.64;39.44;98626.75;6255500;27;96581;-70
2023/06/16 08:00:07;;;;;;;;;21.50;19.75;;;;;28.79;39.63;98628.84;6256452;27;96263;-70
2023/06/16 08:03:15;;;;;;;;;19.00;18.00;;;;;28.84;38.76;98636.94;6253762;27;96981;-71
2023/06/16 08:06:20;;;;;;;;;18.60;17.40;;;;;28.98;38.55;98609.63;6256739;28;96724;-71
2023/06/16 08:09:23;;;;;;;;;17.50;16.75;;;;;29.38;38.69;98623.59;6240778;28;96646;-72
2023/06/16 08:12:27;;;;;;;;;25.00;20.50;;;;;29.59;37.21;98620.63;6258965;28;96321;-69
2023/06/16 08:15:30;;;;;;;;;21.60;19.60;;;;;29.80;37.87;98623.19;6252977;28;98724;-72
2023/06/16 08:18:33;;;;;;;;;18.40;16.00;;;;;30.11;36.84;98618.53;6253273;28;96935;-71
2023/06/16 08:21:38;;;;;;;;;20.00;19.00;;;;;30.41;36.17;98623.66;6252041;27;96291;-72
2023/06/16 08:24:42;;;;;;;;;19.60;17.80;;;;;30.62;32.37;98615.06;6232551;28;98448;-72
2023/06/16 08:27:45;;;;;;;;;22.00;20.00;;;;;30.61;33.16;98619.00;6251208;28;98464;-72
2023/06/16 08:30:48;;;;;;;;;18.00;17.00;;;;;30.70;33.94;98616.84;6251227;27;96304;-73
2023/06/16 08:33:54;;;;;;;;;15.00;14.40;;;;;30.95;32.57;98618.25;6250283;28;96918;-72
2023/06/16 08:37:00;;;;;;;;;13.60;12.00;;;;;31.14;31.00;98611.94;6251038;28;96364;-71
2023/06/16 08:40:10;;;;;;;;;16.00;15.00;;;;;31.20;31.46;98618.84;6250787;28;96303;-70
2023/06/16 08:43:15;;;;;;;;;16.25;15.00;;;;;30.95;30.96;98594.00;6252787;28;96858;-70
2023/06/16 08:46:18;;;;;;;;;17.00;16.00;;;;;30.50;30.96;98605.66;6250098;27;96255;-71
2023/06/16 08:49:22;;;;;;;;;19.00;17.00;;;;;30.32;32.13;98598.00;6249978;28;97726;-71
2023/06/16 08:52:30;;;;;;;;;17.40;17.00;;;;;30.48;33.07;98599.66;6249144;28;96339;-71
2023/06/16 08:55:47;;;;;;;;;19.67;17.00;;;;;30.34;31.96;98599.28;6249834;28;96566;-71
2023/06/16 08:58:50;;;;;;;;;21.40;17.80;;;;;30.45;33.88;98602.28;6232842;28;99267;-71
2023/06/16 09:01:54;;;;;;;;;18.00;17.00;;;;;30.71;33.33;98605.38;6252700;27;96262;-71
2023/06/16 09:04:59;;;;;;;;;19.00;18.40;;;;;30.90;32.37;98597.06;6232565;28;98411;-71
2023/06/16 09:08:08;;;;;;;;;19.00;17.50;;;;;30.64;33.03;98594.09;6233091;28;98389;-71
2023/06/16 09:11:11;;;;;;;;;16.80;16.00;;;;;30.63;34.66;98591.66;6234085;28;96675;-70
2023/06/16 09:14:16;;;;;;;;;20.00;19.00;;;;;30.81;32.37;98593.69;6249151;28;98591;-71
2023/06/16 09:17:24;;;;;;;;;19.40;18.00;;;;;31.11;32.76;98585.63;6249649;27;97091;-70
2023/06/16 09:20:28;;;;;;;;;18.00;16.40;;;;;31.50;33.19;98596.78;6250227;27;96256;-71
2023/06/16 09:23:35;;;;;;;;;19.00;16.00;;;;;31.58;32.02;98599.38;6248180;28;96551;-71
2023/06/16 09:26:39;;;;;;;;;18.00;16.00;;;;;31.81;32.14;98589.09;6248937;28;96402;-72
2023/06/16 09:29:43;;;;;;;;;17.00;16.00;;;;;31.96;31.90;98581.78;6249379;27;96310;-71
2023/06/16 09:32:47;;;;;;;;;15.75;14.75;;;;;32.03;31.49;98583.91;6229351;28;96614;-71
2023/06/16 09:35:52;;;;;;;;;17.60;16.00;;;;;32.10;31.61;98582.09;6247036;28;96361;-71
2023/06/16 09:38:57;;;;;;;;;13.50;13.00;;;;;32.11;30.52;98566.97;6248752;28;98378;-70
2023/06/16 09:42:02;;;;;;;;;17.00;16.00;;;;;32.25;31.14;98566.44;6250316;27;96271;-71
2023/06/16 09:45:09;;;;;;;;;17.00;15.00;;;;;32.27;31.78;98572.41;6251914;27;96859;-70
2023/06/16 09:48:13;;;;;;;;;18.75;17.00;;;;;32.25;31.60;98567.19;6250156;28;96456;-71
2023/06/16 09:51:18;;;;;;;;;20.00;19.00;;;;;31.96;30.42;98564.28;6248771;28;96258;-70
2023/06/16 09:54:24;;;;;;;;;17.20;16.00;;;;;32.35;31.24;98560.22;6245970;28;96904;-71
2023/06/16 09:57:29;;;;;;;;;20.00;18.00;;;;;32.54;30.05;98557.34;6248352;27;96080;-72
2023/06/16 10:00:33;;;;;;;;;18.80;18.00;;;;;32.84;31.27;98551.03;6246756;27;97012;-72
2023/06/16 10:03:39;;;;;;;;;19.50;17.50;;;;;32.99;30.09;98550.03;6250019;27;97104;-70
2023/06/16 10:06:48;;;;;;;;;16.80;16.80;;;;;33.12;28.70;98554.22;6265450;27;96874;-71
2023/06/16 10:09:55;;;;;;;;;16.00;16.00;;;;;32.61;28.73;98551.03;6270672;27;96636;-71
2023/06/16 10:13:09;;;;;;;;;15.60;15.60;;;;;32.27;29.29;98538.13;6247665;28;96616;-70
2023/06/16 10:16:13;;;;;;;;;21.40;18.00;;;;;32.01;30.11;98544.47;6248545;28;96817;-70
2023/06/16 10:19:21;;;;;;;;;18.80;16.80;;;;;31.93;30.06;98537.94;6245913;28;96512;-71
2023/06/16 10:22:26;;;;;;;;;17.20;17.00;;;;;31.78;30.64;98542.44;6247963;28;96720;-70
2023/06/16 10:25:31;;;;;;;;;16.25;15.00;;;;;31.77;30.00;98534.44;6251479;27;97606;-71
2023/06/16 10:28:36;;;;;;;;;16.80;15.80;;;;;31.81;30.80;98538.91;6252967;28;96461;-70
2023/06/16 10:31:40;;;;;;;;;17.00;17.00;;;;;31.93;30.51;98534.34;6252590;27;96796;-71
2023/06/16 10:34:49;;;;;;;;;16.00;15.00;;;;;32.06;30.97;98544.16;6245822;28;98874;-70
2023/06/16 10:37:53;;;;;;;;;17.60;17.00;;;;;32.25;30.10;98533.72;6251940;28;96259;-70
2023/06/16 10:41:00;;;;;;;;;17.00;16.00;;;;;32.25;30.36;98532.94;6254837;28;96276;-69
2023/06/16 10:44:25;;;;;;;;;17.80;15.80;;;;;31.95;30.14;98535.59;6232383;28;97330;-70
2023/06/16 10:47:31;;;;;;;;;16.50;16.00;;;;;31.91;29.84;98531.94;6252142;28;96392;-70
2023/06/16 10:50:43;;;;;;;;;17.25;16.00;;;;;31.90;30.36;98519.19;6232511;27;98422;-70
2023/06/16 10:53:47;;;;;;;;;14.60;14.00;;;;;31.78;30.41;98514.56;6263684;27;96995;-70
2023/06/16 10:57:06;;;;;;;;;13.80;13.00;;;;;31.74;30.16;98513.72;6264799;27;96922;-72
2023/06/16 11:00:17;;;;;;;;;18.00;16.00;;;;;31.91;30.60;98512.44;6254980;27;96881;-71
2023/06/16 11:03:22;;;;;;;;;16.20;15.00;;;;;32.02;29.02;98518.16;6260524;27;97522;-71
2023/06/16 11:06:26;;;;;;;;;15.00;14.25;;;;;32.01;29.48;98514.56;6239044;27;96804;-71
2023/06/16 11:09:30;;;;;;;;;17.25;16.25;;;;;32.08;29.84;98511.91;6258569;27;96256;-71
2023/06/16 11:12:35;;;;;;;;;17.60;15.60;;;;;32.16;28.43;98513.66;6254056;27;96306;-71
2023/06/16 11:15:39;;;;;;;;;19.50;17.50;;;;;32.12;28.40;98503.63;6248564;28;98595;-71
2023/06/16 11:18:43;;;;;;;;;15.40;15.00;;;;;31.85;27.56;98508.31;6256272;27;96313;-71
2023/06/16 11:21:47;;;;;;;;;17.00;15.00;;;;;31.65;27.80;98507.56;6246528;28;96865;-70
2023/06/16 11:24:50;;;;;;;;;17.00;15.00;;;;;31.58;28.97;98496.28;6243606;27;96805;-70
2023/06/16 11:27:55;;;;;;;;;17.00;15.00;;;;;31.41;29.76;98493.94;6250008;27;96245;-70
2023/06/16 11:31:01;;;;;;;;;14.80;13.80;;;;;31.40;29.91;98495.94;6249482;27;96607;-70
2023/06/16 11:34:05;;;;;;;;;13.20;13.20;;;;;31.07;29.29;98506.00;6247413;28;96340;-71
2023/06/16 11:37:08;;;;;;;;;17.40;14.00;;;;;30.93;30.03;98492.56;6237150;27;96726;-71
2023/06/16 11:40:15;;;;;;;;;15.60;14.00;;;;;30.88;31.07;98493.66;6223044;28;98640;-70
2023/06/16 11:43:23;;;;;;;;;18.00;17.00;;;;;30.84;31.42;98494.72;6223224;28;98534;-71
2023/06/16 11:46:28;;;;;;;;;18.00;15.50;;;;;30.81;30.77;98468.44;6264557;27;96915;-71
2023/06/16 11:49:36;;;;;;;;;18.00;15.00;;;;;30.96;31.12;98484.25;6249429;27;96456;-71
2023/06/16 11:52:40;;;;;;;;;15.00;14.40;;;;;31.01;30.23;98474.00;6246134;27;96514;-70
2023/06/16 11:55:50;;;;;;;;;15.60;15.60;;;;;31.07;30.45;98480.94;6253241;27;96680;-71
2023/06/16 11:58:55;;;;;;;;;15.60;15.00;;;;;31.10;30.88;98475.41;6232877;28;96026;-71
2023/06/16 12:02:00;;;;;;;;;15.40;15.00;;;;;31.09;31.46;98479.38;6232242;27;97045;-70
2023/06/16 12:05:05;;;;;;;;;17.40;16.40;;;;;31.18;30.62;98468.03;6246496;27;96252;-71
2023/06/16 12:08:09;;;;;;;;;16.00;14.00;;;;;31.10;31.61;98475.41;6251959;27;96880;-70
2023/06/16 12:11:15;;;;;;;;;15.40;14.00;;;;;30.96;30.80;98452.84;6240721;27;96637;-71
2023/06/16 12:14:22;;;;;;;;;14.80;14.00;;;;;30.97;30.23;98474.75;6226244;28;96363;-71
2023/06/16 12:17:26;;;;;;;;;18.40;16.00;;;;;31.07;31.66;98487.31;6245836;28;96598;-70
2023/06/16 12:20:29;;;;;;;;;15.50;15.00;;;;;31.15;31.30;98474.31;6219441;28;96530;-71
2023/06/16 12:23:35;;;;;;;;;16.75;15.00;;;;;31.24;31.01;98467.34;6250501;27;96574;-70
2023/06/16 12:26:41;;;;;;;;;16.00;14.50;;;;;31.28;31.00;98471.00;6263962;27;96257;-70
2023/06/16 12:29:46;;;;;;;;;18.00;15.00;;;;;31.23;31.03;98464.91;6261582;27;96372;-71
2023/06/16 12:32:49;;;;;;;;;16.00;15.00;;;;;31.23;31.14;98474.09;6253074;27;96603;-69
2023/06/16 12:35:54;;;;;;;;;16.00;15.00;;;;;31.34;31.45;98475.09;6229909;27;98990;-69
2023/06/16 12:38:59;;;;;;;;;17.00;16.00;;;;;31.46;31.21;98473.34;6224521;28;98468;-70
2023/06/16 12:42:05;;;;;;;;;18.60;16.00;;;;;31.57;30.87;98477.94;6207047;28;98622;-69
2023/06/16 12:45:12;;;;;;;;;16.00;16.00;;;;;31.70;30.98;98471.03;6249180;27;97502;-70
2023/06/16 12:48:17;;;;;;;;;19.00;17.50;;;;;31.79;30.15;98468.81;6250650;27;96682;-71
2023/06/16 12:51:21;;;;;;;;;17.00;16.25;;;;;31.74;29.79;98460.75;6224880;27;98351;-71
2023/06/16 12:54:25;;;;;;;;;15.80;15.80;;;;;31.70;30.30;98443.16;6222798;28;97264;-71
2023/06/16 12:57:29;;;;;;;;;15.60;15.00;;;;;31.90;30.41;98459.81;6246404;27;96478;-70
2023/06/16 13:00:36;;;;;;;;;17.00;15.00;;;;;31.90;29.89;98462.59;6217097;28;100064;-71
2023/06/16 13:03:41;;;;;;;;;17.00;14.00;;;;;31.90;30.46;98451.44;6245831;27;96438;-71
2023/06/16 13:06:45;;;;;;;;;17.00;15.40;;;;;31.94;30.12;98455.91;6221485;28;98384;-71
2023/06/16 13:09:48;;;;;;;;;19.75;18.75;;;;;32.00;30.18;98457.22;6252735;27;96199;-72
2023/06/16 13:12:53;;;;;;;;;16.40;15.40;;;;;32.08;30.35;98449.75;6222324;27;96709;-71
2023/06/16 13:15:57;;;;;;;;;16.00;15.60;;;;;32.17;29.27;98450.31;6236451;27;97513;-72
2023/06/16 13:19:01;;;;;;;;;17.50;16.50;;;;;32.07;28.47;98448.94;6236221;27;97389;-71
2023/06/16 13:22:06;;;;;;;;;15.00;14.00;;;;;31.95;29.24;98451.94;6234086;27;99009;-72
2023/06/16 13:25:10;;;;;;;;;16.00;16.00;;;;;31.79;29.29;98449.28;6241794;27;96566;-70
2023/06/16 13:28:16;;;;;;;;;18.40;17.00;;;;;31.53;29.58;98451.16;6243968;27;96286;-70
2023/06/16 13:31:21;;;;;;;;;20.00;18.00;;;;;31.33;30.48;98448.41;6251685;27;97954;-71
2023/06/16 13:34:25;;;;;;;;;15.00;13.00;;;;;31.19;30.79;98444.56;6246248;27;97618;-71
2023/06/16 13:37:28;;;;;;;;;16.40;15.40;;;;;31.09;30.87;98443.19;6236657;27;97530;-70
2023/06/16 13:40:31;;;;;;;;;18.00;17.00;;;;;31.02;30.68;98445.03;6252643;27;96491;-70
2023/06/16 13:43:35;;;;;;;;;17.20;16.20;;;;;30.86;31.04;98437.53;6237417;27;97016;-70
2023/06/16 13:46:40;;;;;;;;;19.00;18.00;;;;;30.79;31.16;98434.59;6248827;27;96295;-71
2023/06/16 13:49:44;;;;;;;;;16.80;14.20;;;;;30.71;30.35;98429.25;6253033;27;96745;-70
2023/06/16 13:52:47;;;;;;;;;17.25;17.00;;;;;30.62;30.18;98429.47;6258924;27;96801;-71
2023/06/16 13:55:50;;;;;;;;;16.60;16.00;;;;;30.49;30.10;98428.81;6245640;27;96276;-70
2023/06/16 13:58:55;;;;;;;;;19.00;16.00;;;;;30.43;31.34;98426.63;6261160;27;96667;-70
2023/06/16 14:02:00;;;;;;;;;17.00;16.00;;;;;30.33;30.36;98421.63;6255360;27;96729;-70
2023/06/16 14:05:04;;;;;;;;;16.75;14.75;;;;;30.37;30.86;98416.94;6252281;27;96469;-70
2023/06/16 14:08:07;;;;;;;;;19.00;18.00;;;;;30.39;30.53;98414.63;6245302;27;96653;-71
2023/06/16 14:11:10;;;;;;;;;18.60;17.60;;;;;30.39;30.64;98423.78;6223571;27;97442;-70